createdAt,value
2023-03-17T00:00:26.524Z,100
2023-03-17T00:20:31.674Z,100
2023-03-17T00:30:33.170Z,100
2023-03-17T00:40:35.775Z,100
2023-03-17T00:50:37.681Z,100
2023-03-17T01:00:40.148Z,100
2023-03-17T01:10:41.939Z,100
2023-03-17T01:30:46.714Z,100
2023-03-17T01:50:51.655Z,100
2023-03-17T02:00:53.929Z,100
2023-03-17T02:10:56.181Z,100
2023-03-17T02:20:57.984Z,100
2023-03-17T02:31:00.061Z,100
2023-03-17T02:41:02.562Z,100
2023-03-17T02:51:05.180Z,100
2023-03-17T03:01:07.074Z,100
2023-03-17T03:11:09.288Z,100
2023-03-17T03:21:11.553Z,100
2023-03-17T03:31:13.713Z,100
2023-03-17T03:41:15.921Z,100
2023-03-17T03:51:18.369Z,100
2023-03-17T04:01:20.473Z,100
2023-03-17T04:11:22.925Z,100
2023-03-17T04:21:25.285Z,100
2023-03-17T04:31:27.283Z,100
2023-03-17T04:41:29.540Z,100
2023-03-17T04:51:31.761Z,100
2023-03-17T05:01:34.091Z,100
2023-03-17T05:11:35.904Z,100
2023-03-17T05:21:37.836Z,100
2023-03-17T05:31:40.499Z,100
2023-03-17T05:41:43.087Z,100
2023-03-17T05:51:45.621Z,100
2023-03-17T06:01:47.422Z,100
2023-03-17T06:11:49.239Z,100
2023-03-17T06:21:51.720Z,100
2023-03-17T06:31:54.049Z,100
2023-03-17T06:41:56.413Z,100
2023-03-17T06:51:58.042Z,100
2023-03-17T07:02:00.720Z,100
2023-03-17T07:12:02.933Z,100
2023-03-17T07:22:05.581Z,100
2023-03-17T07:32:07.917Z,100
2023-03-17T07:42:10.150Z,100
2023-03-17T07:52:12.764Z,100
2023-03-17T08:02:14.996Z,100
2023-03-17T08:12:17.383Z,100
2023-03-17T08:22:19.998Z,100
2023-03-17T08:32:22.520Z,100
2023-03-17T08:42:24.983Z,100
2023-03-17T08:52:27.097Z,100
2023-03-17T09:02:29.762Z,100
2023-03-17T09:12:33.793Z,100
2023-03-17T09:22:34.282Z,100
2023-03-17T09:32:36.631Z,100
2023-03-17T09:42:38.443Z,100
2023-03-17T09:52:40.181Z,94
2023-03-17T10:02:42.033Z,94
2023-03-17T10:12:44.300Z,89
2023-03-17T10:22:46.621Z,87
2023-03-17T10:32:48.480Z,90
2023-03-17T10:42:50.619Z,85
2023-03-17T10:52:52.631Z,84
2023-03-17T11:02:54.465Z,82
2023-03-17T11:12:56.877Z,82
2023-03-17T11:22:59.502Z,81
2023-03-17T11:43:03.551Z,77
2023-03-17T11:53:05.583Z,79
2023-03-17T12:03:07.676Z,82
2023-03-17T12:13:10.301Z,75
2023-03-17T12:23:11.976Z,73
2023-03-17T12:33:13.782Z,72
2023-03-17T12:43:15.763Z,74
2023-03-17T12:53:17.614Z,75
2023-03-17T13:03:20.218Z,70
2023-03-17T13:13:22.011Z,74
2023-03-17T13:23:24.277Z,70
2023-03-17T13:33:26.568Z,70
2023-03-17T13:43:28.545Z,72
2023-03-17T13:53:31.234Z,71
2023-03-17T14:03:33.805Z,76
2023-03-17T14:13:36.352Z,79
2023-03-17T14:23:38.586Z,80
2023-03-17T14:33:40.966Z,83
2023-03-17T14:43:42.738Z,84
2023-03-17T14:53:44.592Z,79
2023-03-17T15:03:46.743Z,85
2023-03-17T15:13:48.515Z,85
2023-03-17T15:23:50.357Z,92
2023-03-17T15:33:52.410Z,89
2023-03-17T15:43:54.314Z,95
2023-03-17T15:53:56.695Z,94
2023-03-17T16:03:59.127Z,98
2023-03-17T16:14:01.378Z,100
2023-03-17T16:24:04.007Z,100
2023-03-17T16:34:06.279Z,100
2023-03-17T16:44:08.454Z,100
2023-03-17T16:54:11.005Z,100
2023-03-17T17:04:12.942Z,100
2023-03-17T17:14:15.003Z,100
2023-03-17T17:24:17.352Z,100
2023-03-17T17:34:19.581Z,100
2023-03-17T17:44:21.869Z,100
2023-03-17T17:54:23.770Z,100
2023-03-17T18:04:25.582Z,100
2023-03-17T18:14:28.145Z,100
2023-03-17T18:24:30.788Z,100
2023-03-17T18:34:33.288Z,100
2023-03-17T18:44:35.366Z,100
2023-03-17T18:54:37.802Z,100
2023-03-17T19:04:39.887Z,100
2023-03-17T19:14:41.604Z,100
2023-03-17T19:24:43.555Z,100
2023-03-17T19:34:45.442Z,100
2023-03-17T19:44:47.981Z,100
2023-03-17T19:54:49.992Z,100
2023-03-17T20:14:53.884Z,100
2023-03-17T20:24:56.326Z,100
2023-03-17T20:34:58.817Z,100
2023-03-17T20:45:00.605Z,100
2023-03-17T20:55:02.290Z,100
2023-03-17T21:05:04.534Z,100
2023-03-17T21:15:06.273Z,100
2023-03-17T21:15:30.128Z,100
2023-03-17T21:25:16.046Z,100
2023-03-17T21:35:17.990Z,100
2023-03-17T21:45:19.919Z,100
2023-03-17T21:55:21.691Z,100
2023-03-17T22:05:24.295Z,100
2023-03-17T22:15:26.010Z,100
2023-03-17T22:25:28.104Z,100
2023-03-17T22:35:29.887Z,100
2023-03-17T22:45:32.264Z,100
2023-03-17T22:55:34.107Z,100
2023-03-17T23:05:35.885Z,100
2023-03-17T23:15:37.926Z,100
2023-03-17T23:25:40.487Z,100
2023-03-17T23:35:42.425Z,100
2023-03-17T23:45:44.594Z,100
2023-03-17T23:55:46.845Z,100
